Time;durP1;ratioP1;P1;durP2;ratioP2;P2;SDS_P1;SDS_P2;PMS_P1;PMS_P2;Temp;Humidity;BMP_temperature;BMP_pressure;BME280_temperature;BME280_humidity;BME280_pressure;Samples;Min_cycle;Max_cycle;Signal;HPM_P1;HPM_P2
2021/12/31 00:00:19;;;;;;;1.33;0.68;;;;;;;;;;5068489;28;20057;-47
2021/12/31 00:02:45;;;;;;;1.98;0.70;;;;;;;;;;5058687;28;20063;-52
2021/12/31 00:05:11;;;;;;;3.72;0.80;;;;;;;;;;5042718;28;20048;-45
2021/12/31 00:07:37;;;;;;;1.30;0.60;;;;;;;;;;5061782;28;20025;-46
2021/12/31 00:10:04;;;;;;;1.65;0.70;;;;;;;;;;5060705;28;20585;-45
2021/12/31 00:12:31;;;;;;;1.85;0.47;;;;;;;;;;5056815;28;20024;-44
2021/12/31 00:14:57;;;;;;;0.85;0.57;;;;;;;;;;5060425;28;20078;-47
2021/12/31 00:17:23;;;;;;;1.23;0.68;;;;;;;;;;5063344;28;20153;-44
2021/12/31 00:19:58;;;;;;;1.70;0.60;;;;;;;;;;5059138;28;20025;-46
2021/12/31 00:24:54;;;;;;;1.75;0.40;;;;;;;;;;5062242;28;20049;-45
2021/12/31 00:27:20;;;;;;;1.52;0.60;;;;;;;;;;5060376;28;20037;-46
2021/12/31 00:29:46;;;;;;;2.08;0.60;;;;;;;;;;5061585;28;20085;-45
2021/12/31 00:32:12;;;;;;;0.82;0.60;;;;;;;;;;5061298;28;20088;-47
2021/12/31 00:34:38;;;;;;;1.52;0.70;;;;;;;;;;5060349;28;20016;-44
2021/12/31 00:37:04;;;;;;;2.08;0.50;;;;;;;;;;5061413;28;20036;-47
2021/12/31 00:39:30;;;;;;;1.20;0.52;;;;;;;;;;5060682;28;20021;-51
2021/12/31 00:41:56;;;;;;;1.38;0.60;;;;;;;;;;5062668;28;20021;-45
2021/12/31 00:44:24;;;;;;;0.65;0.50;;;;;;;;;;5065764;28;20012;-44
2021/12/31 00:46:50;;;;;;;0.85;0.47;;;;;;;;;;5045899;28;20377;-45
2021/12/31 00:49:16;;;;;;;1.27;0.70;;;;;;;;;;5066241;28;20504;-44
2021/12/31 00:51:42;;;;;;;0.60;0.40;;;;;;;;;;5062921;28;20049;-54
2021/12/31 00:54:08;;;;;;;0.77;0.55;;;;;;;;;;5065908;28;20039;-46
2021/12/31 00:56:34;;;;;;;1.20;0.73;;;;;;;;;;5064474;28;20508;-47
2021/12/31 00:59:00;;;;;;;1.83;0.60;;;;;;;;;;5066401;28;20016;-50
2021/12/31 01:01:27;;;;;;;1.15;0.52;;;;;;;;;;5066231;28;20108;-45
2021/12/31 01:03:53;;;;;;;1.10;0.45;;;;;;;;;;5062409;28;20476;-46
2021/12/31 01:06:19;;;;;;;2.28;0.57;;;;;;;;;;5054883;28;20025;-46
2021/12/31 01:08:45;;;;;;;0.80;0.60;;;;;;;;;;5054302;28;20037;-47
2021/12/31 01:11:11;;;;;;;1.02;0.60;;;;;;;;;;5055225;28;20431;-47
2021/12/31 01:13:52;;;;;;;1.17;0.70;;;;;;;;;;5054823;28;20028;-45
2021/12/31 01:16:19;;;;;;;1.15;0.68;;;;;;;;;;5054949;28;20573;-47
2021/12/31 01:21:15;;;;;;;1.05;0.60;;;;;;;;;;5054652;28;20355;-47
2021/12/31 01:23:41;;;;;;;1.02;0.50;;;;;;;;;;5063155;28;20029;-46
2021/12/31 01:26:07;;;;;;;1.63;1.02;;;;;;;;;;5074155;28;20020;-46
2021/12/31 01:28:33;;;;;;;0.73;0.60;;;;;;;;;;5074673;28;20036;-47
2021/12/31 01:30:59;;;;;;;0.77;0.60;;;;;;;;;;5073724;28;20020;-47
2021/12/31 01:33:25;;;;;;;0.65;0.50;;;;;;;;;;5074835;28;20043;-45
2021/12/31 01:35:51;;;;;;;0.65;0.40;;;;;;;;;;5073391;28;20029;-46
2021/12/31 01:38:17;;;;;;;2.13;0.75;;;;;;;;;;5074002;28;20413;-44
2021/12/31 01:40:44;;;;;;;0.80;0.60;;;;;;;;;;5074463;28;20028;-44
2021/12/31 01:43:13;;;;;;;1.80;0.90;;;;;;;;;;5074449;28;20056;-44
2021/12/31 01:45:55;;;;;;;1.00;0.60;;;;;;;;;;5074198;28;20103;-44
2021/12/31 01:48:28;;;;;;;0.68;0.50;;;;;;;;;;5074517;28;20043;-44
2021/12/31 01:50:54;;;;;;;0.82;0.40;;;;;;;;;;5073317;28;20029;-44
2021/12/31 01:53:22;;;;;;;0.60;0.60;;;;;;;;;;5074024;28;20472;-44
2021/12/31 01:55:50;;;;;;;0.73;0.52;;;;;;;;;;5073497;28;20017;-44
2021/12/31 01:58:17;;;;;;;0.68;0.43;;;;;;;;;;5074117;28;20374;-44
2021/12/31 02:00:43;;;;;;;1.40;0.75;;;;;;;;;;5074490;28;20024;-44
2021/12/31 02:03:09;;;;;;;0.60;0.43;;;;;;;;;;5073419;28;20021;-44
2021/12/31 02:05:35;;;;;;;3.97;0.60;;;;;;;;;;5073808;28;20028;-44
2021/12/31 02:08:01;;;;;;;1.73;0.60;;;;;;;;;;5072777;28;20055;-45
2021/12/31 02:10:27;;;;;;;0.63;0.47;;;;;;;;;;5073883;28;20385;-44
2021/12/31 02:12:54;;;;;;;0.63;0.50;;;;;;;;;;5073255;28;20146;-44
2021/12/31 02:15:20;;;;;;;2.35;1.10;;;;;;;;;;5073628;28;20366;-47
2021/12/31 02:17:48;;;;;;;1.33;0.70;;;;;;;;;;5073059;28;20442;-44
2021/12/31 02:20:14;;;;;;;0.65;0.40;;;;;;;;;;5073652;28;20021;-44
2021/12/31 02:22:52;;;;;;;0.65;0.50;;;;;;;;;;5073140;28;20027;-44
2021/12/31 02:25:19;;;;;;;0.77;0.50;;;;;;;;;;5053472;28;20413;-44
2021/12/31 02:27:46;;;;;;;0.77;0.50;;;;;;;;;;5053496;28;20082;-54
2021/12/31 02:30:12;;;;;;;0.70;0.55;;;;;;;;;;5053441;28;20100;-45
2021/12/31 02:32:38;;;;;;;1.65;0.43;;;;;;;;;;5053436;28;20027;-44
2021/12/31 02:35:05;;;;;;;0.68;0.50;;;;;;;;;;5052725;28;20071;-44
2021/12/31 02:37:32;;;;;;;1.10;0.55;;;;;;;;;;5052990;28;20051;-44
2021/12/31 02:39:58;;;;;;;0.90;0.50;;;;;;;;;;5052551;28;20029;-45
2021/12/31 02:42:24;;;;;;;1.88;0.70;;;;;;;;;;5053311;28;20477;-44
2021/12/31 02:44:51;;;;;;;1.02;0.40;;;;;;;;;;5052652;28;20104;-44
2021/12/31 02:47:17;;;;;;;1.05;0.57;;;;;;;;;;5053075;28;20389;-44
2021/12/31 02:49:46;;;;;;;0.68;0.55;;;;;;;;;;5053181;28;20131;-44
2021/12/31 02:52:13;;;;;;;4.63;1.08;;;;;;;;;;5052935;28;20025;-44
2021/12/31 02:54:42;;;;;;;1.15;0.50;;;;;;;;;;5052884;28;20051;-47
2021/12/31 02:57:08;;;;;;;2.42;0.60;;;;;;;;;;5052143;28;20025;-45
2021/12/31 02:59:35;;;;;;;0.77;0.60;;;;;;;;;;5052949;28;20032;-49
2021/12/31 03:02:03;;;;;;;0.60;0.57;;;;;;;;;;5052221;28;20033;-44
2021/12/31 03:04:30;;;;;;;0.90;0.50;;;;;;;;;;5052343;28;20024;-45
2021/12/31 03:06:57;;;;;;;0.68;0.55;;;;;;;;;;5052113;28;20021;-44
2021/12/31 03:09:25;;;;;;;1.73;0.60;;;;;;;;;;5052508;28;20040;-44
2021/12/31 03:11:55;;;;;;;0.65;0.40;;;;;;;;;;5052090;28;20036;-44
2021/12/31 03:14:22;;;;;;;0.60;0.55;;;;;;;;;;5052740;28;20028;-44
2021/12/31 03:16:49;;;;;;;0.77;0.55;;;;;;;;;;5052054;28;20461;-53
2021/12/31 03:19:15;;;;;;;0.40;0.40;;;;;;;;;;5052541;28;20063;-44
2021/12/31 03:21:41;;;;;;;1.00;0.60;;;;;;;;;;5034820;28;20378;-45
2021/12/31 03:24:07;;;;;;;0.70;0.52;;;;;;;;;;5063812;28;20235;-44
2021/12/31 03:26:34;;;;;;;1.52;0.73;;;;;;;;;;5072494;28;20025;-46
2021/12/31 03:29:00;;;;;;;1.77;0.57;;;;;;;;;;5071838;28;20078;-45
2021/12/31 03:31:26;;;;;;;0.50;0.50;;;;;;;;;;5072651;28;20046;-44
2021/12/31 03:33:52;;;;;;;1.45;0.70;;;;;;;;;;5071879;28;20028;-44
2021/12/31 03:36:18;;;;;;;1.30;0.60;;;;;;;;;;5072214;28;20060;-45
2021/12/31 03:38:44;;;;;;;0.60;0.50;;;;;;;;;;5072476;28;20033;-44
2021/12/31 03:41:10;;;;;;;0.82;0.60;;;;;;;;;;5071720;28;20404;-44
2021/12/31 03:43:36;;;;;;;0.75;0.50;;;;;;;;;;5072459;28;20029;-45
2021/12/31 03:46:02;;;;;;;1.15;0.70;;;;;;;;;;5071663;28;20025;-44
2021/12/31 03:48:28;;;;;;;1.02;0.52;;;;;;;;;;5072039;28;20035;-44
2021/12/31 03:50:54;;;;;;;0.52;0.40;;;;;;;;;;5071658;28;20369;-48
2021/12/31 03:53:20;;;;;;;0.47;0.45;;;;;;;;;;5072276;28;20369;-45
2021/12/31 03:55:46;;;;;;;0.70;0.47;;;;;;;;;;5072155;28;20385;-45
2021/12/31 03:58:13;;;;;;;1.20;0.82;;;;;;;;;;5071488;28;20043;-46
2021/12/31 04:00:39;;;;;;;0.70;0.50;;;;;;;;;;5072241;28;20028;-44
2021/12/31 04:03:09;;;;;;;0.60;0.55;;;;;;;;;;5071540;28;20055;-44
2021/12/31 04:05:36;;;;;;;1.83;0.50;;;;;;;;;;5072133;28;20021;-45
2021/12/31 04:08:02;;;;;;;0.50;0.30;;;;;;;;;;5071599;28;20402;-44
2021/12/31 04:10:28;;;;;;;0.93;0.60;;;;;;;;;;5071939;28;20028;-44
2021/12/31 04:12:55;;;;;;;0.77;0.70;;;;;;;;;;5071432;28;20021;-45
2021/12/31 04:15:21;;;;;;;0.50;0.45;;;;;;;;;;5074664;28;20025;-44
2021/12/31 04:17:47;;;;;;;0.85;0.52;;;;;;;;;;5075858;28;20075;-44
2021/12/31 04:20:24;;;;;;;0.32;0.32;;;;;;;;;;5075387;28;20063;-45
2021/12/31 04:22:53;;;;;;;2.08;0.68;;;;;;;;;;5073926;28;20021;-51
2021/12/31 04:25:19;;;;;;;0.30;0.30;;;;;;;;;;5055652;28;20021;-44
2021/12/31 04:27:45;;;;;;;1.20;0.77;;;;;;;;;;5055754;28;20033;-47
2021/12/31 04:30:11;;;;;;;1.13;0.45;;;;;;;;;;5055194;28;20036;-48
2021/12/31 04:32:39;;;;;;;0.60;0.50;;;;;;;;;;5055653;28;20021;-44
2021/12/31 04:35:06;;;;;;;0.75;0.60;;;;;;;;;;5055147;28;20021;-46
2021/12/31 04:37:32;;;;;;;3.03;0.60;;;;;;;;;;5054803;28;20494;-44
2021/12/31 04:39:58;;;;;;;0.77;0.52;;;;;;;;;;5054896;28;20113;-49
2021/12/31 04:42:24;;;;;;;0.57;0.55;;;;;;;;;;5020424;28;20091;-46
2021/12/31 04:44:50;;;;;;;0.60;0.40;;;;;;;;;;5055537;28;20071;-44
2021/12/31 04:47:16;;;;;;;1.15;0.50;;;;;;;;;;5055201;28;20052;-45
2021/12/31 04:49:42;;;;;;;0.82;0.50;;;;;;;;;;5055411;28;20036;-46
2021/12/31 04:52:08;;;;;;;0.55;0.47;;;;;;;;;;5054432;28;20025;-46
2021/12/31 04:54:34;;;;;;;0.73;0.50;;;;;;;;;;5055546;28;20021;-45
2021/12/31 04:57:00;;;;;;;0.50;0.50;;;;;;;;;;5054464;28;20044;-44
2021/12/31 04:59:26;;;;;;;0.60;0.40;;;;;;;;;;5055035;28;20457;-44
2021/12/31 05:01:52;;;;;;;1.65;0.85;;;;;;;;;;5054443;28;20061;-44
2021/12/31 05:04:19;;;;;;;1.48;0.63;;;;;;;;;;5055307;28;20440;-44
2021/12/31 05:06:47;;;;;;;0.80;0.30;;;;;;;;;;5054927;28;20522;-46
2021/12/31 05:09:13;;;;;;;1.13;0.60;;;;;;;;;;5054422;28;20037;-44
2021/12/31 05:11:39;;;;;;;1.08;0.50;;;;;;;;;;5054792;28;20028;-46
2021/12/31 05:14:05;;;;;;;0.45;0.40;;;;;;;;;;5054275;28;20027;-45
2021/12/31 05:16:32;;;;;;;0.80;0.43;;;;;;;;;;5054855;28;20017;-45
2021/12/31 05:18:58;;;;;;;0.82;0.40;;;;;;;;;;5054079;28;20043;-50
2021/12/31 05:21:24;;;;;;;2.17;0.50;;;;;;;;;;5054840;28;20021;-44
2021/12/31 05:23:50;;;;;;;1.27;0.50;;;;;;;;;;5064541;28;20024;-45
2021/12/31 05:26:16;;;;;;;0.30;0.30;;;;;;;;;;5073457;28;20024;-49
2021/12/31 05:28:42;;;;;;;0.30;0.30;;;;;;;;;;5074594;28;20025;-44
2021/12/31 05:31:08;;;;;;;1.67;0.57;;;;;;;;;;5073804;28;20406;-46
2021/12/31 05:33:35;;;;;;;0.45;0.40;;;;;;;;;;5074409;28;20028;-46
2021/12/31 05:36:01;;;;;;;0.82;0.70;;;;;;;;;;5073708;28;20071;-48
2021/12/31 05:38:27;;;;;;;1.13;0.45;;;;;;;;;;5074358;28;20072;-44
2021/12/31 05:40:53;;;;;;;1.13;0.50;;;;;;;;;;5073581;28;20021;-51
2021/12/31 05:43:19;;;;;;;2.50;0.40;;;;;;;;;;5073961;28;20423;-48
2021/12/31 05:45:45;;;;;;;0.47;0.32;;;;;;;;;;5074354;28;20065;-49
2021/12/31 05:48:11;;;;;;;0.75;0.40;;;;;;;;;;5073673;28;20040;-44
2021/12/31 05:50:37;;;;;;;1.50;0.63;;;;;;;;;;5074207;28;20028;-45
2021/12/31 05:53:03;;;;;;;0.77;0.47;;;;;;;;;;5073543;28;20129;-47
2021/12/31 05:55:29;;;;;;;1.33;0.70;;;;;;;;;;5074186;28;20082;-46
2021/12/31 05:57:56;;;;;;;0.40;0.40;;;;;;;;;;5073207;28;20043;-46
2021/12/31 06:00:22;;;;;;;1.15;0.60;;;;;;;;;;5074107;28;20024;-46
2021/12/31 06:02:48;;;;;;;0.95;0.47;;;;;;;;;;5073926;28;20032;-45
2021/12/31 06:05:14;;;;;;;1.00;0.50;;;;;;;;;;5073397;28;20103;-49
2021/12/31 06:07:40;;;;;;;0.70;0.45;;;;;;;;;;5073536;28;20103;-48
2021/12/31 06:10:07;;;;;;;0.80;0.50;;;;;;;;;;5073184;28;20064;-45
2021/12/31 06:12:37;;;;;;;0.65;0.50;;;;;;;;;;5073387;28;20504;-48
2021/12/31 06:15:04;;;;;;;2.20;0.60;;;;;;;;;;5073124;28;20028;-48
2021/12/31 06:17:32;;;;;;;0.45;0.38;;;;;;;;;;5073659;28;20032;-47
2021/12/31 06:19:58;;;;;;;1.30;0.73;;;;;;;;;;5073063;28;20342;-46
2021/12/31 06:22:24;;;;;;;0.77;0.57;;;;;;;;;;5074005;28;20024;-48
2021/12/31 06:24:51;;;;;;;1.20;0.77;;;;;;;;;;5055287;28;20464;-48
2021/12/31 06:27:17;;;;;;;0.80;0.60;;;;;;;;;;5053144;28;20441;-49
2021/12/31 06:29:43;;;;;;;1.33;0.77;;;;;;;;;;5053091;28;20052;-49
2021/12/31 06:32:09;;;;;;;0.80;0.40;;;;;;;;;;5052962;28;20064;-44
2021/12/31 06:34:35;;;;;;;0.70;0.52;;;;;;;;;;5053426;28;20408;-45
2021/12/31 06:37:02;;;;;;;0.50;0.40;;;;;;;;;;5052512;28;20124;-47
2021/12/31 06:39:28;;;;;;;0.57;0.50;;;;;;;;;;5052446;28;20493;-45
2021/12/31 06:41:55;;;;;;;0.60;0.40;;;;;;;;;;5053173;28;20025;-48
2021/12/31 06:44:21;;;;;;;1.95;0.65;;;;;;;;;;5053055;28;20062;-46
2021/12/31 06:46:47;;;;;;;0.75;0.60;;;;;;;;;;5053128;28;20140;-44
2021/12/31 06:49:13;;;;;;;1.23;0.75;;;;;;;;;;5052712;28;20417;-49
2021/12/31 06:51:45;;;;;;;0.70;0.60;;;;;;;;;;5053377;28;20017;-45
2021/12/31 06:54:11;;;;;;;0.60;0.47;;;;;;;;;;5052208;28;20025;-47
2021/12/31 06:56:37;;;;;;;0.65;0.50;;;;;;;;;;5053030;28;20025;-49
2021/12/31 06:59:03;;;;;;;0.52;0.40;;;;;;;;;;5052019;28;20025;-47
2021/12/31 07:01:29;;;;;;;0.90;0.63;;;;;;;;;;5053040;28;20028;-49
2021/12/31 07:03:55;;;;;;;0.88;0.82;;;;;;;;;;5052734;28;20028;-45
2021/12/31 07:06:21;;;;;;;0.38;0.38;;;;;;;;;;5052723;28;20025;-45
2021/12/31 07:08:47;;;;;;;0.40;0.40;;;;;;;;;;5052797;28;20402;-45
2021/12/31 07:11:13;;;;;;;0.70;0.50;;;;;;;;;;5051905;28;20056;-44
2021/12/31 07:13:39;;;;;;;1.30;0.63;;;;;;;;;;5052643;28;20049;-45
2021/12/31 07:16:05;;;;;;;1.73;0.73;;;;;;;;;;5052034;28;20032;-44
2021/12/31 07:18:31;;;;;;;1.85;0.55;;;;;;;;;;5065717;28;20032;-43
2021/12/31 07:20:57;;;;;;;1.13;0.80;;;;;;;;;;5071902;28;20025;-44
2021/12/31 07:23:23;;;;;;;1.63;1.00;;;;;;;;;;5066082;28;20033;-44
2021/12/31 07:25:49;;;;;;;3.53;1.00;;;;;;;;;;5052375;28;20381;-45
2021/12/31 07:28:16;;;;;;;1.10;0.68;;;;;;;;;;5051937;28;20029;-44
2021/12/31 07:30:43;;;;;;;1.48;0.57;;;;;;;;;;5051937;28;20473;-45
2021/12/31 07:33:19;;;;;;;0.77;0.70;;;;;;;;;;5051879;28;20029;-44
2021/12/31 07:35:46;;;;;;;1.75;0.60;;;;;;;;;;5052238;28;20025;-45
2021/12/31 07:38:25;;;;;;;1.33;0.80;;;;;;;;;;5051240;28;20478;-44
2021/12/31 07:40:52;;;;;;;1.55;0.70;;;;;;;;;;5052371;28;20057;-45
2021/12/31 07:43:18;;;;;;;0.70;0.50;;;;;;;;;;5051739;28;20385;-44
2021/12/31 07:45:46;;;;;;;1.42;0.70;;;;;;;;;;5051657;28;20032;-46
2021/12/31 07:48:12;;;;;;;1.27;0.73;;;;;;;;;;5051292;28;20035;-44
2021/12/31 07:50:38;;;;;;;1.20;0.50;;;;;;;;;;5051857;28;20025;-44
2021/12/31 07:53:05;;;;;;;1.02;0.60;;;;;;;;;;5051584;28;20424;-45
2021/12/31 07:55:31;;;;;;;0.85;0.60;;;;;;;;;;5052144;28;20033;-45
2021/12/31 07:57:57;;;;;;;5.20;0.80;;;;;;;;;;5063244;28;20032;-43
2021/12/31 08:00:23;;;;;;;1.33;0.70;;;;;;;;;;5073049;28;20054;-43
2021/12/31 08:02:50;;;;;;;0.73;0.70;;;;;;;;;;5072842;28;20012;-45
2021/12/31 08:05:16;;;;;;;1.05;0.68;;;;;;;;;;5071009;28;20032;-44
2021/12/31 08:07:42;;;;;;;1.15;0.95;;;;;;;;;;5034098;28;20470;-44
2021/12/31 08:10:08;;;;;;;1.35;0.50;;;;;;;;;;5051434;28;20083;-46
2021/12/31 08:12:37;;;;;;;1.35;0.82;;;;;;;;;;5052031;28;20033;-44
2021/12/31 08:15:06;;;;;;;3.28;1.02;;;;;;;;;;5051019;28;20440;-45
2021/12/31 08:17:32;;;;;;;2.67;1.25;;;;;;;;;;5051415;28;20389;-48
2021/12/31 08:19:58;;;;;;;0.98;0.70;;;;;;;;;;5051874;28;20083;-45
2021/12/31 08:22:25;;;;;;;2.45;1.15;;;;;;;;;;5052088;28;20044;-49
2021/12/31 08:24:51;;;;;;;2.85;0.75;;;;;;;;;;5051442;28;20025;-46
2021/12/31 08:27:17;;;;;;;4.35;0.70;;;;;;;;;;5050997;28;20560;-44
2021/12/31 08:29:43;;;;;;;3.92;0.80;;;;;;;;;;5051404;28;20048;-47
2021/12/31 08:32:09;;;;;;;2.72;0.73;;;;;;;;;;5051321;28;20079;-45
2021/12/31 08:34:35;;;;;;;2.78;0.90;;;;;;;;;;5051883;28;20086;-44
2021/12/31 08:37:01;;;;;;;1.33;0.82;;;;;;;;;;5050827;28;20049;-44
2021/12/31 08:39:27;;;;;;;1.77;0.90;;;;;;;;;;5051795;28;20030;-45
2021/12/31 08:41:53;;;;;;;3.55;0.80;;;;;;;;;;5051567;28;20082;-50
2021/12/31 08:44:19;;;;;;;3.03;1.02;;;;;;;;;;5050972;28;20024;-45
2021/12/31 08:46:46;;;;;;;2.85;0.90;;;;;;;;;;5066318;28;20028;-45
2021/12/31 08:49:12;;;;;;;1.35;1.00;;;;;;;;;;5065889;28;20032;-48
2021/12/31 08:51:38;;;;;;;1.05;0.70;;;;;;;;;;5061237;28;20031;-45
2021/12/31 08:54:05;;;;;;;4.53;0.70;;;;;;;;;;5058693;28;20021;-45
2021/12/31 08:56:31;;;;;;;1.75;0.75;;;;;;;;;;5058571;28;20119;-48
2021/12/31 08:58:56;;;;;;;1.60;0.98;;;;;;;;;;5056911;28;20169;-45
2021/12/31 09:01:22;;;;;;;1.40;0.70;;;;;;;;;;5056225;28;20055;-45
2021/12/31 09:03:48;;;;;;;1.95;0.93;;;;;;;;;;5059874;28;20031;-49
2021/12/31 09:06:18;;;;;;;1.92;0.70;;;;;;;;;;5060461;28;20052;-45
2021/12/31 09:08:44;;;;;;;3.08;1.13;;;;;;;;;;5063567;28;20032;-45
2021/12/31 09:11:12;;;;;;;1.27;0.77;;;;;;;;;;5064677;28;20017;-49
2021/12/31 09:13:41;;;;;;;3.15;0.80;;;;;;;;;;5063739;28;20047;-50
2021/12/31 09:16:07;;;;;;;2.13;1.10;;;;;;;;;;5061659;28;20016;-48
2021/12/31 09:18:33;;;;;;;2.72;1.20;;;;;;;;;;5062329;28;20374;-47
2021/12/31 09:21:00;;;;;;;3.92;1.45;;;;;;;;;;5063828;28;20519;-47
2021/12/31 09:23:26;;;;;;;3.00;0.80;;;;;;;;;;5062236;28;20064;-47
2021/12/31 09:25:52;;;;;;;6.20;1.42;;;;;;;;;;5064353;28;20048;-48
2021/12/31 09:28:18;;;;;;;5.72;1.85;;;;;;;;;;5062057;28;20063;-47
2021/12/31 09:30:44;;;;;;;2.53;0.90;;;;;;;;;;5062326;28;20021;-47
2021/12/31 09:33:11;;;;;;;2.00;0.85;;;;;;;;;;5043860;28;20044;-47
2021/12/31 09:35:37;;;;;;;3.30;0.75;;;;;;;;;;5063563;28;20488;-47
2021/12/31 09:38:09;;;;;;;3.05;1.13;;;;;;;;;;5061623;28;20041;-57
2021/12/31 09:40:35;;;;;;;;;;;;;;;;;;5060864;28;20063;-48
2021/12/31 09:43:03;;;;;;;2.25;0.80;;;;;;;;;;5061916;28;20351;-46
2021/12/31 09:45:30;;;;;;;1.65;0.90;;;;;;;;;;5061977;28;20040;-47
2021/12/31 09:47:59;;;;;;;5.03;1.20;;;;;;;;;;5063537;28;20513;-47
2021/12/31 09:50:26;;;;;;;3.63;1.08;;;;;;;;;;5062864;28;20089;-50
2021/12/31 09:52:54;;;;;;;1.60;1.00;;;;;;;;;;5063192;28;20025;-44
2021/12/31 09:55:39;;;;;;;2.28;1.17;;;;;;;;;;5044938;28;20355;-49
2021/12/31 09:58:05;;;;;;;1.88;0.90;;;;;;;;;;5061995;28;20033;-55
2021/12/31 10:00:31;;;;;;;2.58;0.98;;;;;;;;;;5068611;28;20028;-46
2021/12/31 10:03:09;;;;;;;1.45;0.93;;;;;;;;;;5064493;28;20024;-47
2021/12/31 10:05:41;;;;;;;1.40;0.80;;;;;;;;;;5055895;28;20021;-49
2021/12/31 10:08:17;;;;;;;1.80;0.85;;;;;;;;;;5058118;28;20020;-57
2021/12/31 10:10:44;;;;;;;2.30;0.90;;;;;;;;;;5064050;28;20020;-52
2021/12/31 10:13:10;;;;;;;3.08;0.98;;;;;;;;;;5062889;28;20024;-48
2021/12/31 10:15:40;;;;;;;4.10;1.20;;;;;;;;;;5060994;28;20651;-48
2021/12/31 10:18:10;;;;;;;5.95;1.10;;;;;;;;;;5059144;28;20037;-58
2021/12/31 10:20:49;;;;;;;3.13;0.77;;;;;;;;;;5069136;28;20028;-48
2021/12/31 10:23:16;;;;;;;2.33;0.85;;;;;;;;;;5062549;28;20025;-49
2021/12/31 10:25:42;;;;;;;0.80;0.80;;;;;;;;;;5044948;28;20021;-47
2021/12/31 10:28:10;;;;;;;6.78;1.10;;;;;;;;;;5060908;28;20484;-47
2021/12/31 10:30:36;;;;;;;2.83;0.93;;;;;;;;;;5043035;28;20052;-48
2021/12/31 10:33:02;;;;;;;4.70;1.00;;;;;;;;;;5062288;28;20074;-49
2021/12/31 10:35:37;;;;;;;1.83;1.13;;;;;;;;;;5060558;28;20521;-48
2021/12/31 10:38:06;;;;;;;2.72;0.70;;;;;;;;;;5059854;28;20071;-48
2021/12/31 10:40:45;;;;;;;2.25;0.95;;;;;;;;;;5061000;28;20039;-47
2021/12/31 10:43:16;;;;;;;1.95;1.20;;;;;;;;;;5060515;28;20386;-47
2021/12/31 10:46:00;;;;;;;1.30;0.80;;;;;;;;;;5061920;28;20434;-47
2021/12/31 10:48:45;;;;;;;1.48;0.70;;;;;;;;;;5059660;28;20029;-47
2021/12/31 10:51:12;;;;;;;4.72;1.10;;;;;;;;;;5060581;28;20040;-48
2021/12/31 10:53:38;;;;;;;4.82;1.25;;;;;;;;;;5060323;28;20020;-49
2021/12/31 10:56:08;;;;;;;2.65;0.80;;;;;;;;;;5060259;28;20021;-52
2021/12/31 10:58:35;;;;;;;2.13;0.90;;;;;;;;;;5060672;28;20036;-49
2021/12/31 11:01:02;;;;;;;3.20;0.75;;;;;;;;;;5065724;28;20017;-48
2021/12/31 11:03:28;;;;;;;3.38;1.13;;;;;;;;;;5071487;28;20094;-46
2021/12/31 11:05:57;;;;;;;3.83;0.80;;;;;;;;;;5072097;28;20056;-50
2021/12/31 11:08:23;;;;;;;3.67;0.90;;;;;;;;;;5071105;28;20535;-49
2021/12/31 11:10:51;;;;;;;6.40;1.27;;;;;;;;;;5071888;28;20380;-48
2021/12/31 11:13:21;;;;;;;1.45;0.80;;;;;;;;;;5071309;28;20024;-48
2021/12/31 11:15:50;;;;;;;6.32;1.02;;;;;;;;;;5061547;28;20098;-48
2021/12/31 11:18:20;;;;;;;5.55;1.17;;;;;;;;;;5061478;28;20040;-48
2021/12/31 11:20:46;;;;;;;9.95;1.25;;;;;;;;;;5060440;28;20021;-48
2021/12/31 11:23:12;;;;;;;3.85;1.55;;;;;;;;;;5055871;28;20028;-46
2021/12/31 11:25:50;;;;;;;3.88;1.20;;;;;;;;;;5071867;28;20021;-48
2021/12/31 11:28:23;;;;;;;1.92;0.70;;;;;;;;;;5070776;28;20036;-50
2021/12/31 11:30:50;;;;;;;5.57;0.75;;;;;;;;;;5071940;28;20108;-48
2021/12/31 11:33:18;;;;;;;3.10;0.98;;;;;;;;;;5071157;28;20583;-48
2021/12/31 11:35:46;;;;;;;4.50;0.95;;;;;;;;;;5071721;28;20020;-47
2021/12/31 11:38:37;;;;;;;3.35;0.75;;;;;;;;;;5070623;28;20090;-47
2021/12/31 11:41:05;;;;;;;2.00;0.80;;;;;;;;;;5066504;28;20016;-47
2021/12/31 11:43:32;;;;;;;2.78;1.38;;;;;;;;;;5050394;28;20032;-48
2021/12/31 11:46:15;;;;;;;3.58;1.17;;;;;;;;;;5061777;28;20382;-49
2021/12/31 11:48:50;;;;;;;4.60;0.93;;;;;;;;;;5091874;28;20036;-48
2021/12/31 11:51:19;;;;;;;3.88;1.25;;;;;;;;;;5090821;28;20107;-50
2021/12/31 11:53:59;;;;;;;2.67;0.80;;;;;;;;;;5091760;28;20048;-47
2021/12/31 11:56:34;;;;;;;1.40;0.70;;;;;;;;;;5091205;28;20099;-48
2021/12/31 11:59:09;;;;;;;4.82;1.13;;;;;;;;;;5091813;28;20074;-47
2021/12/31 12:01:51;;;;;;;3.63;1.40;;;;;;;;;;5090744;28;20473;-47
2021/12/31 12:04:21;;;;;;;2.30;0.98;;;;;;;;;;5090971;28;20469;-48
2021/12/31 12:06:52;;;;;;;2.33;1.10;;;;;;;;;;5091791;28;20050;-49
2021/12/31 12:09:19;;;;;;;1.52;0.88;;;;;;;;;;5090978;28;20070;-49
2021/12/31 12:12:01;;;;;;;1.25;0.70;;;;;;;;;;5091850;28;20024;-47
2021/12/31 12:14:37;;;;;;;1.85;1.13;;;;;;;;;;5091016;28;20115;-51
2021/12/31 12:17:04;;;;;;;2.95;0.68;;;;;;;;;;5091908;28;20020;-50
2021/12/31 12:20:02;;;;;;;1.63;0.75;;;;;;;;;;5090631;28;20024;-47
2021/12/31 12:22:33;;;;;;;2.05;0.90;;;;;;;;;;5035514;28;20088;-49
2021/12/31 12:25:10;;;;;;;2.15;0.88;;;;;;;;;;5072199;28;20482;-48
2021/12/31 12:27:36;;;;;;;1.23;0.70;;;;;;;;;;5071450;28;20094;-47
2021/12/31 12:30:04;;;;;;;2.38;1.33;;;;;;;;;;5071921;28;20027;-47
2021/12/31 12:34:57;;;;;;;1.60;0.90;;;;;;;;;;5071439;28;20052;-47
2021/12/31 12:37:30;;;;;;;1.70;0.60;;;;;;;;;;5072341;28;20084;-49
2021/12/31 12:39:59;;;;;;;3.88;1.35;;;;;;;;;;5075098;28;20124;-47
2021/12/31 12:42:25;;;;;;;2.22;0.80;;;;;;;;;;5074391;28;20047;-50
2021/12/31 12:45:01;;;;;;;1.42;0.73;;;;;;;;;;5056910;28;20025;-48
2021/12/31 12:47:27;;;;;;;1.88;0.90;;;;;;;;;;5074078;28;20381;-49
2021/12/31 12:49:56;;;;;;;1.17;0.82;;;;;;;;;;5074502;28;20465;-47
2021/12/31 12:52:23;;;;;;;1.05;0.63;;;;;;;;;;5074184;28;20035;-48
2021/12/31 12:54:49;;;;;;;2.33;0.85;;;;;;;;;;5074734;28;20016;-48
2021/12/31 12:57:24;;;;;;;3.97;0.95;;;;;;;;;;5073930;28;20056;-49
2021/12/31 12:59:50;;;;;;;1.13;0.80;;;;;;;;;;5074955;28;20521;-47
2021/12/31 13:02:35;;;;;;;2.08;0.70;;;;;;;;;;5073789;28;20036;-47
2021/12/31 13:05:05;;;;;;;1.33;0.70;;;;;;;;;;5056769;28;20459;-47
2021/12/31 13:07:31;;;;;;;1.58;1.08;;;;;;;;;;5073795;28;20021;-49
2021/12/31 13:10:03;;;;;;;1.25;0.70;;;;;;;;;;5074715;28;20031;-49
2021/12/31 13:12:29;;;;;;;2.15;0.93;;;;;;;;;;5073809;28;20027;-47
2021/12/31 13:14:58;;;;;;;1.73;0.82;;;;;;;;;;5074321;28;20040;-48
2021/12/31 13:17:26;;;;;;;0.90;0.52;;;;;;;;;;5073637;28;20021;-47
2021/12/31 13:20:02;;;;;;;1.27;0.82;;;;;;;;;;5074621;28;20029;-47
2021/12/31 13:22:33;;;;;;;0.60;0.52;;;;;;;;;;5073557;28;20017;-48
2021/12/31 13:24:59;;;;;;;1.30;0.70;;;;;;;;;;5055044;28;20398;-47
2021/12/31 13:27:25;;;;;;;1.80;0.60;;;;;;;;;;5053472;28;20029;-47
2021/12/31 13:30:02;;;;;;;3.13;0.70;;;;;;;;;;5054193;28;20021;-47
2021/12/31 13:32:36;;;;;;;1.17;0.63;;;;;;;;;;5053485;28;20029;-47
2021/12/31 13:35:05;;;;;;;0.98;0.80;;;;;;;;;;5053997;28;20024;-47
2021/12/31 13:37:31;;;;;;;1.05;0.55;;;;;;;;;;5053084;28;20045;-47
2021/12/31 13:40:13;;;;;;;2.13;1.00;;;;;;;;;;5054061;28;20380;-47
2021/12/31 13:42:41;;;;;;;1.30;0.52;;;;;;;;;;5054467;28;20132;-47
2021/12/31 13:45:17;;;;;;;1.35;0.80;;;;;;;;;;5053929;28;20029;-47
2021/12/31 13:47:43;;;;;;;1.55;0.68;;;;;;;;;;5053481;28;20039;-47
2021/12/31 13:50:09;;;;;;;1.50;0.60;;;;;;;;;;5053578;28;20208;-48
2021/12/31 13:52:44;;;;;;;2.53;1.42;;;;;;;;;;5053012;28;20454;-47
2021/12/31 13:55:20;;;;;;;1.52;0.60;;;;;;;;;;5053771;28;20082;-47
2021/12/31 13:57:54;;;;;;;1.38;0.80;;;;;;;;;;5053509;28;20060;-47
2021/12/31 14:00:24;;;;;;;2.58;1.08;;;;;;;;;;5052569;28;20044;-47
2021/12/31 14:02:50;;;;;;;1.48;0.80;;;;;;;;;;5053833;28;20025;-47
2021/12/31 14:05:19;;;;;;;1.92;0.98;;;;;;;;;;5052927;28;20078;-55
2021/12/31 14:10:26;;;;;;;1.55;0.82;;;;;;;;;;5052790;28;20538;-47
2021/12/31 14:12:53;;;;;;;1.50;0.73;;;;;;;;;;5053541;28;20025;-49
2021/12/31 14:15:21;;;;;;;0.93;0.60;;;;;;;;;;5052519;28;20017;-49
2021/12/31 14:17:50;;;;;;;1.70;0.63;;;;;;;;;;5053280;28;20083;-47
2021/12/31 14:20:16;;;;;;;0.47;0.47;;;;;;;;;;5052653;28;20052;-55
2021/12/31 14:22:43;;;;;;;0.82;0.70;;;;;;;;;;5053526;28;20083;-52
2021/12/31 14:25:09;;;;;;;1.33;0.68;;;;;;;;;;5073510;28;20082;-48
2021/12/31 14:27:35;;;;;;;0.60;0.60;;;;;;;;;;5072574;28;20086;-51
2021/12/31 14:30:01;;;;;;;1.27;0.70;;;;;;;;;;5073180;28;20074;-48
2021/12/31 14:32:27;;;;;;;0.95;0.80;;;;;;;;;;5072318;28;20025;-51
2021/12/31 14:34:55;;;;;;;0.95;0.63;;;;;;;;;;5073039;28;20024;-52
2021/12/31 14:37:21;;;;;;;0.85;0.55;;;;;;;;;;5071630;28;20409;-50
2021/12/31 14:39:51;;;;;;;0.95;0.50;;;;;;;;;;5072603;28;20190;-52
2021/12/31 14:42:22;;;;;;;1.30;0.60;;;;;;;;;;5072116;28;20044;-51
2021/12/31 14:44:48;;;;;;;1.30;0.70;;;;;;;;;;5054627;28;20105;-51
2021/12/31 14:47:14;;;;;;;0.60;0.60;;;;;;;;;;5072418;28;20499;-56
2021/12/31 14:49:40;;;;;;;0.90;0.70;;;;;;;;;;5072236;28;20064;-47
2021/12/31 14:52:07;;;;;;;1.27;0.80;;;;;;;;;;5072229;28;20060;-49
2021/12/31 14:54:39;;;;;;;1.08;0.82;;;;;;;;;;5071751;28;20027;-52
2021/12/31 14:57:06;;;;;;;0.90;0.70;;;;;;;;;;5072222;28;20351;-48